This is the latest recevied weather packets stored in our database for station/object K9UO. If no packets are shown the sender has not sent any weather packets the latest 10 day(s).
| Time | Temp. | Humidity | Pressure | Rain* | Wind** | Luminosity | Snow |
|---|---|---|---|---|---|---|---|
| 1777975227 | 12.22° C | 1% | 1003.9 hPa | 0.25 mm | - | - | - |
| 1777974320 | 12.22° C | 1% | 1003.8 hPa | 0.25 mm | - | - | - |
| 1777973415 | 12.22° C | 1% | 1003.1 hPa | 0.25 mm | - | - | - |
| 1777972522 | 12.22° C | 1% | 1003.5 hPa | 0.76 mm | - | - | - |
| 1777971613 | 12.78° C | 1% | 1003.7 hPa | 1.02 mm | - | - | - |
| 1777970703 | 12.78° C | 1% | 1004.1 hPa | 2.03 mm | - | - | - |
| 1777969858 | 13.33° C | 1% | 1005 hPa | 2.54 mm | - | - | - |
| 1777968955 | 12.78° C | 1% | 1005 hPa | 2.29 mm | - | - | - |
| 1777968054 | 12.78° C | 1% | 1004.7 hPa | 2.03 mm | - | - | - |
| 1777967151 | 12.78° C | 1% | 1005.4 hPa | 1.02 mm | - | - | - |
| 1777966259 | 12.78° C | 1% | 1005.9 hPa | 1.02 mm | - | - | - |
| 1777965338 | 12.22° C | 1% | 1005.4 hPa | 0.76 mm | - | - | - |
| 1777964433 | 12.22° C | 1% | 1005.4 hPa | 0.51 mm | - | - | - |
| 1777963539 | 12.78° C | 1% | 1006 hPa | 0.51 mm | - | - | - |
| 1777962624 | 13.33° C | 1% | 1005.6 hPa | 0 mm | - | - | - |
| 1777961731 | 15° C | 10% | 1005.5 hPa | 0 mm | - | - | - |
| 1777960815 | 17.22° C | 54% | 1005.2 hPa | 0 mm | - | - | - |
| 1777959911 | 18.33° C | 57% | 1004.5 hPa | 0 mm | - | - | - |
| 1777959007 | 18.33° C | 57% | 1003.9 hPa | 0 mm | - | - | - |
| 1777958106 | 18.33° C | 57% | 1002.7 hPa | 0 mm | - | - | - |
| 1777957203 | 18.33° C | 58% | 1002.3 hPa | 0 mm | - | - | - |
| 1777956360 | 18.33° C | 57% | 1002.1 hPa | 0 mm | - | - | - |
| 1777955469 | 18.33° C | 57% | 1002.1 hPa | 0 mm | - | - | - |
| 1777954560 | 18.33° C | 57% | 1002.2 hPa | 0 mm | - | - | - |
| 1777953656 | 18.89° C | 57% | 1002.5 hPa | 0 mm | - | - | - |
* Rain latest hour (hover to see other rain measurements)
** Current wind speed in m/s (hover to see current wind gust speed)